createdAt,value
2023-05-12T00:00:42.482Z,3.20
2023-05-12T00:03:08.997Z,3.15
2023-05-12T00:05:35.575Z,2.78
2023-05-12T00:08:01.976Z,2.85
2023-05-12T00:10:28.597Z,4.18
2023-05-12T00:12:55.641Z,4.03
2023-05-12T00:15:22.487Z,5.72
2023-05-12T00:17:49.439Z,5.53
2023-05-12T00:20:15.876Z,3.17
2023-05-12T00:22:42.254Z,2.85
2023-05-12T00:25:08.888Z,2.22
2023-05-12T00:27:35.306Z,4.40
2023-05-12T00:30:01.708Z,2.55
2023-05-12T00:32:28.172Z,2.40
2023-05-12T00:34:54.623Z,1.98
2023-05-12T00:37:21.046Z,5.03
2023-05-12T00:39:47.426Z,2.38
2023-05-12T00:42:13.969Z,2.38
2023-05-12T00:44:40.429Z,2.47
2023-05-12T00:47:07.021Z,3.65
2023-05-12T00:49:33.531Z,3.22
2023-05-12T00:52:02.893Z,3.20
2023-05-12T00:54:30.423Z,2.30
2023-05-12T00:56:57.580Z,3.30
2023-05-12T00:59:23.957Z,2.83
2023-05-12T01:01:50.470Z,2.85
2023-05-12T01:04:17.146Z,2.40
2023-05-12T01:06:49.200Z,2.70
2023-05-12T01:09:15.851Z,4.70
2023-05-12T01:11:42.281Z,2.67
2023-05-12T01:14:08.761Z,3.45
2023-05-12T01:16:41.212Z,3.45
2023-05-12T01:19:15.051Z,3.67
2023-05-12T01:21:41.498Z,2.42
2023-05-12T01:24:09.131Z,3.08
2023-05-12T01:26:35.935Z,4.40
2023-05-12T01:29:04.505Z,3.47
2023-05-12T01:31:31.705Z,2.90
2023-05-12T01:33:58.152Z,2.28
2023-05-12T01:36:24.612Z,3.03
2023-05-12T01:38:51.060Z,2.70
2023-05-12T01:41:17.447Z,2.83
2023-05-12T01:43:43.889Z,2.85
2023-05-12T01:46:10.813Z,2.67
2023-05-12T01:48:37.380Z,2.28
2023-05-12T01:51:08.777Z,4.07
2023-05-12T01:53:35.225Z,4.65
2023-05-12T01:56:01.610Z,3.80
2023-05-12T01:58:28.012Z,3.42
2023-05-12T02:00:54.422Z,2.72
2023-05-12T02:03:21.581Z,2.13
2023-05-12T02:05:48.405Z,3.10
2023-05-12T02:08:14.823Z,4.03
2023-05-12T02:10:41.717Z,3.35
2023-05-12T02:13:08.637Z,4.43
2023-05-12T02:15:35.034Z,5.55
2023-05-12T02:18:03.851Z,3.53
2023-05-12T02:20:30.395Z,3.30
2023-05-12T02:22:56.980Z,5.55
2023-05-12T02:25:23.421Z,3.90
2023-05-12T02:27:49.809Z,3.53
2023-05-12T02:30:16.257Z,5.43
2023-05-12T02:32:42.786Z,4.65
2023-05-12T02:35:09.684Z,4.80
2023-05-12T02:37:36.206Z,4.35
2023-05-12T02:40:02.674Z,5.18
2023-05-12T02:42:33.693Z,4.47
2023-05-12T02:45:00.188Z,5.35
2023-05-12T02:47:26.610Z,5.38
2023-05-12T02:49:53.073Z,5.43
2023-05-12T02:52:19.463Z,4.22
2023-05-12T02:54:45.843Z,5.50
2023-05-12T02:57:12.283Z,6.05
2023-05-12T02:59:38.657Z,5.60
2023-05-12T03:02:05.647Z,6.60
2023-05-12T03:04:33.074Z,5.68
2023-05-12T03:06:59.552Z,4.93
2023-05-12T03:09:26.042Z,4.68
2023-05-12T03:11:52.441Z,6.18
2023-05-12T03:14:18.843Z,3.90
2023-05-12T03:16:45.288Z,4.65
2023-05-12T03:19:11.884Z,7.45
2023-05-12T03:21:38.499Z,6.22
2023-05-12T03:24:05.781Z,7.50
2023-05-12T03:26:32.188Z,4.60
2023-05-12T03:28:58.576Z,5.75
2023-05-12T03:31:25.024Z,6.50
2023-05-12T03:33:51.478Z,3.88
2023-05-12T03:36:17.927Z,8.82
2023-05-12T03:38:44.513Z,4.65
2023-05-12T03:41:10.961Z,6.25
2023-05-12T03:43:37.368Z,6.45
2023-05-12T03:46:04.036Z,10.55
2023-05-12T03:48:30.613Z,4.72
2023-05-12T03:50:57.043Z,7.93
2023-05-12T03:53:23.520Z,6.00
2023-05-12T03:55:49.951Z,6.03
2023-05-12T03:58:16.460Z,5.38
2023-05-12T04:00:44.159Z,4.82
2023-05-12T04:03:10.762Z,5.15
2023-05-12T04:05:39.387Z,5.72
2023-05-12T04:08:06.116Z,8.57
2023-05-12T04:10:32.570Z,8.35
2023-05-12T04:12:59.045Z,5.68
2023-05-12T04:15:25.950Z,5.68
2023-05-12T04:17:52.434Z,6.63
2023-05-12T04:20:19.103Z,5.40
2023-05-12T04:22:45.904Z,6.90
2023-05-12T04:25:12.444Z,5.50
2023-05-12T04:27:38.901Z,6.45
2023-05-12T04:30:06.359Z,7.78
2023-05-12T04:32:32.781Z,8.65
2023-05-12T04:34:59.227Z,8.82
2023-05-12T04:37:26.118Z,10.85
2023-05-12T04:39:52.582Z,6.65
2023-05-12T04:42:19.283Z,9.02
2023-05-12T04:44:46.593Z,15.93
2023-05-12T04:47:13.083Z,8.27
2023-05-12T04:49:39.531Z,8.05
2023-05-12T04:52:06.097Z,6.80
2023-05-12T04:54:32.487Z,12.40
2023-05-12T04:56:58.943Z,7.13
2023-05-12T04:59:25.320Z,6.18
2023-05-12T05:01:51.935Z,5.72
2023-05-12T05:04:18.429Z,7.10
2023-05-12T05:06:44.853Z,6.05
2023-05-12T05:09:11.496Z,9.15
2023-05-12T05:11:37.907Z,6.22
2023-05-12T05:14:04.379Z,6.82
2023-05-12T05:16:30.973Z,12.38
2023-05-12T05:18:58.395Z,6.95
2023-05-12T05:21:24.951Z,7.10
2023-05-12T05:23:52.628Z,7.43
2023-05-12T05:26:19.140Z,7.65
2023-05-12T05:28:45.770Z,5.95
2023-05-12T05:31:16.519Z,9.05
2023-05-12T05:33:44.335Z,9.60
2023-05-12T05:36:10.779Z,13.65
2023-05-12T05:38:37.190Z,8.82
2023-05-12T05:41:03.864Z,7.43
2023-05-12T05:43:30.242Z,8.55
2023-05-12T05:45:58.110Z,6.43
2023-05-12T05:48:25.059Z,8.18
2023-05-12T05:50:52.665Z,5.88
2023-05-12T05:53:19.971Z,6.05
2023-05-12T05:55:49.576Z,7.78
2023-05-12T05:58:16.177Z,7.00
2023-05-12T06:00:43.473Z,7.38
2023-05-12T06:03:09.996Z,6.93
2023-05-12T06:05:36.600Z,8.32
2023-05-12T06:08:05.062Z,8.27
2023-05-12T06:10:31.634Z,8.60
2023-05-12T06:13:01.306Z,6.88
2023-05-12T06:15:27.694Z,10.80
2023-05-12T06:17:54.137Z,9.90
2023-05-12T06:20:20.705Z,5.38
2023-05-12T06:22:47.323Z,8.20
2023-05-12T06:25:14.461Z,10.50
2023-05-12T06:27:40.968Z,7.30
2023-05-12T06:30:08.167Z,5.57
2023-05-12T06:32:34.607Z,4.90
2023-05-12T06:35:01.145Z,6.65
2023-05-12T06:37:27.724Z,7.40
2023-05-12T06:39:54.245Z,7.32
2023-05-12T06:42:20.823Z,7.80
2023-05-12T06:44:47.280Z,6.95
2023-05-12T06:47:13.770Z,5.05
2023-05-12T06:49:40.166Z,6.82
2023-05-12T06:52:07.216Z,10.13
2023-05-12T06:54:33.783Z,5.85
2023-05-12T06:57:00.451Z,5.22
2023-05-12T06:59:26.967Z,5.65
2023-05-12T07:01:53.488Z,7.40
2023-05-12T07:04:19.920Z,5.45
2023-05-12T07:06:46.345Z,5.00
2023-05-12T07:09:13.651Z,6.47
2023-05-12T07:11:40.274Z,8.35
2023-05-12T07:14:06.727Z,9.70
2023-05-12T07:16:33.209Z,5.18
2023-05-12T07:18:59.755Z,5.97
2023-05-12T07:21:26.219Z,7.47
2023-05-12T07:23:52.929Z,5.72
2023-05-12T07:26:19.557Z,8.23
2023-05-12T07:28:46.116Z,6.53
2023-05-12T07:31:12.671Z,5.80
2023-05-12T07:33:42.554Z,5.03
2023-05-12T07:36:09.078Z,5.20
2023-05-12T07:38:35.965Z,6.97
2023-05-12T07:41:02.481Z,7.07
2023-05-12T07:43:28.997Z,8.20
2023-05-12T07:45:56.136Z,6.20
2023-05-12T07:48:22.703Z,7.43
2023-05-12T07:50:49.103Z,6.40
2023-05-12T07:53:15.585Z,6.05
2023-05-12T07:55:43.561Z,7.70
2023-05-12T07:58:10.111Z,7.13
2023-05-12T08:00:36.930Z,7.05
2023-05-12T08:03:04.497Z,9.15
2023-05-12T08:05:31.082Z,9.63
2023-05-12T08:07:57.538Z,6.60
2023-05-12T08:10:26.696Z,7.35
2023-05-12T08:12:53.181Z,7.32
2023-05-12T08:15:19.865Z,5.50
2023-05-12T08:17:46.588Z,6.43
2023-05-12T08:20:13.888Z,9.70
2023-05-12T08:22:40.778Z,9.43
2023-05-12T08:25:09.662Z,7.63
2023-05-12T08:27:37.404Z,7.53
2023-05-12T08:30:04.174Z,5.70
2023-05-12T08:32:30.699Z,5.70
2023-05-12T08:34:57.106Z,6.15
2023-05-12T08:37:23.585Z,5.07
2023-05-12T08:39:50.072Z,8.65
2023-05-12T08:42:30.437Z,5.80
2023-05-12T08:45:02.184Z,5.80
2023-05-12T08:47:28.989Z,7.28
2023-05-12T08:50:03.599Z,5.25
2023-05-12T08:52:35.888Z,7.15
2023-05-12T08:55:04.356Z,7.78
2023-05-12T08:57:31.547Z,7.00
2023-05-12T09:00:01.074Z,5.75
2023-05-12T09:02:37.692Z,7.10
2023-05-12T09:05:11.496Z,5.53
2023-05-12T09:07:43.723Z,7.93
2023-05-12T09:10:34.555Z,5.50
2023-05-12T09:13:17.543Z,8.10
2023-05-12T09:15:47.397Z,7.57
2023-05-12T09:18:13.961Z,6.60
2023-05-12T09:20:40.628Z,4.05
2023-05-12T09:23:18.762Z,4.95
2023-05-12T09:25:47.154Z,3.83
2023-05-12T09:28:14.506Z,3.72
2023-05-12T09:30:42.483Z,7.65
2023-05-12T09:33:11.248Z,3.15
2023-05-12T09:35:42.801Z,3.47
2023-05-12T09:38:11.052Z,4.22
2023-05-12T09:40:38.872Z,5.82
2023-05-12T09:43:06.761Z,4.18
2023-05-12T09:45:37.208Z,4.45
2023-05-12T09:48:11.409Z,4.45
2023-05-12T09:50:48.663Z,3.72
2023-05-12T09:53:17.831Z,3.97
2023-05-12T09:55:47.958Z,2.65
2023-05-12T09:58:20.058Z,2.45
2023-05-12T10:03:18.193Z,1.77
2023-05-12T10:05:57.896Z,3.05
2023-05-12T10:08:27.150Z,3.92
2023-05-12T10:10:56.086Z,4.40
2023-05-12T10:13:22.885Z,6.35
2023-05-12T10:15:50.296Z,3.97
2023-05-12T10:18:17.365Z,3.22
2023-05-12T10:20:46.998Z,4.75
2023-05-12T10:23:14.973Z,3.08
2023-05-12T10:25:42.752Z,4.50
2023-05-12T10:28:10.118Z,7.40
2023-05-12T10:30:39.025Z,3.60
2023-05-12T10:33:08.473Z,3.58
2023-05-12T10:35:36.481Z,5.20
2023-05-12T10:38:10.431Z,6.10
2023-05-12T10:41:01.111Z,4.38
2023-05-12T10:43:29.431Z,4.60
2023-05-12T10:46:18.981Z,4.10
2023-05-12T10:48:55.970Z,5.53
2023-05-12T10:51:28.536Z,2.97
2023-05-12T10:54:00.954Z,1.52
2023-05-12T10:56:30.829Z,2.03
2023-05-12T10:59:19.193Z,1.10
2023-05-12T11:02:01.772Z,2.92
2023-05-12T11:04:50.575Z,1.75
2023-05-12T11:07:27.101Z,2.22
2023-05-12T11:09:59.270Z,2.20
2023-05-12T11:12:37.968Z,2.45
2023-05-12T11:15:06.121Z,3.67
2023-05-12T11:17:33.000Z,3.08
2023-05-12T11:20:01.039Z,4.57
2023-05-12T11:22:28.027Z,2.00
2023-05-12T11:25:08.836Z,3.80
2023-05-12T11:27:35.869Z,2.08
2023-05-12T11:30:04.182Z,3.17
2023-05-12T11:32:30.855Z,2.10
2023-05-12T11:35:19.472Z,1.80
2023-05-12T11:37:46.500Z,3.95
2023-05-12T11:40:13.063Z,3.25
2023-05-12T11:42:41.274Z,2.97
2023-05-12T11:45:18.864Z,1.38
2023-05-12T11:47:52.929Z,2.58
2023-05-12T11:50:24.497Z,2.78
2023-05-12T11:52:52.987Z,1.80
2023-05-12T11:55:22.444Z,1.48
2023-05-12T11:57:57.918Z,3.20
2023-05-12T12:00:38.305Z,1.90
2023-05-12T12:03:14.119Z,6.10
2023-05-12T12:05:51.523Z,1.13
2023-05-12T12:08:18.383Z,2.42
2023-05-12T12:10:46.184Z,2.50
2023-05-12T12:13:19.599Z,0.90
2023-05-12T12:15:46.064Z,2.70
2023-05-12T12:18:12.547Z,4.38
2023-05-12T12:20:39.032Z,3.17
2023-05-12T12:23:05.517Z,3.25
2023-05-12T12:25:55.459Z,3.17
2023-05-12T12:28:32.431Z,2.25
2023-05-12T12:30:59.607Z,1.80
2023-05-12T12:33:26.149Z,4.50
2023-05-12T12:35:53.326Z,5.45
2023-05-12T12:38:20.888Z,2.88
2023-05-12T12:40:47.636Z,3.33
2023-05-12T12:43:14.242Z,5.18
2023-05-12T12:45:40.815Z,3.83
2023-05-12T12:48:09.107Z,5.30
2023-05-12T12:50:36.808Z,1.48
2023-05-12T12:53:03.425Z,2.15
2023-05-12T12:55:30.261Z,5.60
2023-05-12T12:58:00.304Z,4.05
2023-05-12T13:00:30.088Z,3.13
2023-05-12T13:02:56.982Z,3.65
2023-05-12T13:05:23.738Z,2.17
2023-05-12T13:07:51.590Z,3.63
2023-05-12T13:10:18.110Z,4.28
2023-05-12T13:12:44.585Z,4.97
2023-05-12T13:15:11.525Z,5.60
2023-05-12T13:17:38.008Z,6.65
2023-05-12T13:20:04.985Z,3.53
2023-05-12T13:22:31.724Z,5.60
2023-05-12T13:24:58.294Z,2.95
2023-05-12T13:27:24.806Z,2.15
2023-05-12T13:29:52.758Z,1.98
2023-05-12T13:32:20.686Z,2.78
2023-05-12T13:34:47.274Z,1.63
2023-05-12T13:37:13.801Z,6.28
2023-05-12T13:39:40.335Z,1.58
2023-05-12T13:42:07.006Z,1.15
2023-05-12T13:44:33.429Z,2.45
2023-05-12T13:47:00.016Z,1.05
2023-05-12T13:49:26.565Z,2.63
2023-05-12T13:51:52.969Z,1.17
2023-05-12T13:54:19.423Z,1.35
2023-05-12T13:56:46.203Z,1.40
2023-05-12T13:59:13.095Z,4.07
2023-05-12T14:01:39.614Z,2.38
2023-05-12T14:04:06.090Z,2.20
2023-05-12T14:06:32.572Z,0.98
2023-05-12T14:08:59.289Z,1.40
2023-05-12T14:11:25.920Z,1.80
2023-05-12T14:13:52.477Z,1.73
2023-05-12T14:16:18.983Z,1.48
2023-05-12T14:18:45.524Z,1.65
2023-05-12T14:21:12.130Z,2.53
2023-05-12T14:23:42.677Z,1.58
2023-05-12T14:26:09.261Z,1.02
2023-05-12T14:28:36.383Z,2.25
2023-05-12T14:31:03.776Z,2.17
2023-05-12T14:33:31.529Z,1.83
2023-05-12T14:36:06.650Z,1.33
2023-05-12T14:38:35.537Z,2.35
2023-05-12T14:41:02.169Z,2.10
2023-05-12T14:43:28.882Z,2.13
2023-05-12T14:45:56.568Z,2.97
2023-05-12T14:48:26.303Z,3.80
2023-05-12T14:50:53.963Z,3.20
2023-05-12T14:53:20.966Z,4.05
2023-05-12T14:55:49.925Z,4.00
2023-05-12T14:58:17.992Z,3.50
2023-05-12T15:00:45.244Z,4.00
2023-05-12T15:03:12.367Z,3.58
2023-05-12T15:05:56.741Z,4.20
2023-05-12T15:08:25.347Z,4.75
2023-05-12T15:10:52.737Z,4.40
2023-05-12T15:13:20.822Z,6.50
2023-05-12T15:15:47.265Z,5.32
2023-05-12T15:18:13.788Z,5.25
2023-05-12T15:20:40.668Z,5.90
2023-05-12T15:23:07.286Z,5.97
2023-05-12T15:25:33.816Z,5.88
2023-05-12T15:28:00.353Z,7.13
2023-05-12T15:30:26.823Z,5.68
2023-05-12T15:32:53.391Z,3.75
2023-05-12T15:35:20.059Z,5.03
2023-05-12T15:37:46.672Z,4.38
2023-05-12T15:40:13.753Z,5.38
2023-05-12T15:42:40.762Z,7.00
2023-05-12T15:45:11.695Z,6.32
2023-05-12T15:47:38.547Z,8.73
2023-05-12T15:50:05.532Z,3.90
2023-05-12T15:52:32.013Z,4.30
2023-05-12T15:55:00.956Z,5.50
2023-05-12T15:57:27.395Z,6.88
2023-05-12T15:59:59.808Z,7.57
2023-05-12T16:02:26.337Z,5.28
2023-05-12T16:04:52.832Z,3.60
2023-05-12T16:07:19.366Z,5.60
2023-05-12T16:09:45.976Z,4.95
2023-05-12T16:12:22.087Z,3.25
2023-05-12T16:14:50.803Z,5.40
2023-05-12T16:17:17.406Z,3.65
2023-05-12T16:19:43.894Z,4.22
2023-05-12T16:22:13.459Z,4.30
2023-05-12T16:24:40.124Z,6.25
2023-05-12T16:27:06.538Z,3.45
2023-05-12T16:29:33.073Z,3.30
2023-05-12T16:32:00.083Z,3.92
2023-05-12T16:34:27.410Z,5.35
2023-05-12T16:36:53.915Z,5.10
2023-05-12T16:39:20.389Z,7.43
2023-05-12T16:41:47.163Z,9.60
2023-05-12T16:44:13.583Z,7.10
2023-05-12T16:46:41.658Z,4.80
2023-05-12T16:49:20.292Z,7.22
2023-05-12T16:51:46.743Z,8.00
2023-05-12T16:54:13.194Z,7.40
2023-05-12T16:56:39.565Z,4.43
2023-05-12T16:59:06.507Z,5.68
2023-05-12T17:01:34.089Z,7.38
2023-05-12T17:04:00.614Z,8.52
2023-05-12T17:06:27.422Z,4.03
2023-05-12T17:08:53.873Z,3.10
2023-05-12T17:11:20.480Z,7.32
2023-05-12T17:13:47.455Z,6.05
2023-05-12T17:16:16.392Z,6.25
2023-05-12T17:21:12.329Z,6.97
2023-05-12T17:23:39.395Z,4.38
2023-05-12T17:26:05.906Z,3.13
2023-05-12T17:28:34.102Z,4.22
2023-05-12T17:31:01.589Z,4.75
2023-05-12T17:33:29.043Z,3.70
2023-05-12T17:36:10.981Z,3.85
2023-05-12T17:38:39.932Z,2.03
2023-05-12T17:41:07.064Z,6.80
2023-05-12T17:43:34.083Z,3.17
2023-05-12T17:46:08.665Z,1.83
2023-05-12T17:48:35.395Z,3.38
2023-05-12T17:51:03.405Z,1.60
2023-05-12T17:53:31.294Z,2.78
2023-05-12T17:55:59.875Z,3.70
2023-05-12T17:58:26.506Z,5.65
2023-05-12T18:01:01.586Z,3.70
2023-05-12T18:03:28.451Z,2.03
2023-05-12T18:05:55.071Z,1.58
2023-05-12T18:08:21.892Z,1.80
2023-05-12T18:10:49.059Z,1.80
2023-05-12T18:13:16.800Z,2.63
2023-05-12T18:15:48.481Z,3.17
2023-05-12T18:18:15.455Z,2.83
2023-05-12T18:20:42.689Z,4.72
2023-05-12T18:23:09.461Z,2.45
2023-05-12T18:25:36.361Z,3.58
2023-05-12T18:28:03.877Z,2.58
2023-05-12T18:30:32.952Z,2.85
2023-05-12T18:33:00.365Z,1.70
2023-05-12T18:35:27.268Z,6.47
2023-05-12T18:37:54.985Z,3.03
2023-05-12T18:40:22.015Z,2.47
2023-05-12T18:42:48.745Z,2.50
2023-05-12T18:45:15.707Z,3.05
2023-05-12T18:47:43.345Z,1.50
2023-05-12T18:50:11.953Z,2.85
2023-05-12T18:52:39.670Z,2.60
2023-05-12T18:55:07.219Z,5.30
2023-05-12T18:57:34.662Z,3.80
2023-05-12T19:00:02.141Z,3.63
2023-05-12T19:02:33.257Z,2.17
2023-05-12T19:05:00.670Z,2.70
2023-05-12T19:07:28.899Z,3.72
2023-05-12T19:09:59.112Z,2.50
2023-05-12T19:12:29.798Z,4.97
2023-05-12T19:14:56.493Z,2.83
2023-05-12T19:17:26.111Z,2.72
2023-05-12T19:19:54.196Z,1.98
2023-05-12T19:22:20.888Z,5.05
2023-05-12T19:24:47.357Z,8.90
2023-05-12T19:27:13.822Z,4.03
2023-05-12T19:29:40.232Z,4.78
2023-05-12T19:32:06.966Z,4.20
2023-05-12T19:34:33.518Z,2.80
2023-05-12T19:37:01.090Z,5.75
2023-05-12T19:39:27.912Z,4.63
2023-05-12T19:41:54.412Z,2.95
2023-05-12T19:44:21.923Z,6.63
2023-05-12T19:46:48.599Z,1.88
2023-05-12T19:49:15.696Z,2.22
2023-05-12T19:51:42.109Z,3.50
2023-05-12T19:54:09.953Z,3.55
2023-05-12T19:56:36.383Z,2.95
2023-05-12T19:59:02.820Z,6.30
2023-05-12T20:01:29.979Z,3.83
2023-05-12T20:03:56.632Z,2.75
2023-05-12T20:06:24.288Z,1.98
2023-05-12T20:08:51.014Z,1.00
2023-05-12T20:11:17.397Z,1.70
2023-05-12T20:13:43.896Z,2.00
2023-05-12T20:16:10.659Z,1.15
2023-05-12T20:18:37.164Z,1.48
2023-05-12T20:21:03.657Z,1.90
2023-05-12T20:23:30.062Z,2.38
2023-05-12T20:25:57.572Z,2.72
2023-05-12T20:28:24.456Z,1.60
2023-05-12T20:30:51.356Z,2.67
2023-05-12T20:33:18.195Z,3.85
2023-05-12T20:35:44.687Z,1.33
2023-05-12T20:38:11.101Z,1.90
2023-05-12T20:40:37.498Z,2.47
2023-05-12T20:43:04.111Z,1.17
2023-05-12T20:45:30.520Z,1.17
2023-05-12T20:47:56.977Z,1.95
2023-05-12T20:50:23.834Z,4.43
2023-05-12T20:52:50.380Z,3.20
2023-05-12T20:55:16.785Z,3.15
2023-05-12T20:57:43.195Z,3.85
2023-05-12T21:00:10.787Z,4.18
2023-05-12T21:02:37.866Z,3.20
2023-05-12T21:05:05.055Z,4.00
2023-05-12T21:07:31.958Z,3.78
2023-05-12T21:10:00.219Z,4.00
2023-05-12T21:12:27.765Z,3.95
2023-05-12T21:14:54.372Z,30.30
2023-05-12T21:17:21.001Z,36.78
2023-05-12T21:19:47.629Z,27.48
2023-05-12T21:22:14.060Z,16.80
2023-05-12T21:24:40.557Z,7.13
2023-05-12T21:27:08.163Z,5.32
2023-05-12T21:29:35.406Z,4.20
2023-05-12T21:32:02.305Z,3.90
2023-05-12T21:34:28.850Z,5.47
2023-05-12T21:36:56.615Z,8.80
2023-05-12T21:39:23.463Z,5.90
2023-05-12T21:41:50.288Z,5.75
2023-05-12T21:44:17.071Z,5.50
2023-05-12T21:46:44.337Z,5.55
2023-05-12T21:49:11.108Z,5.57
2023-05-12T21:51:37.973Z,6.13
2023-05-12T21:54:04.652Z,5.07
2023-05-12T21:56:31.284Z,4.63
2023-05-12T21:58:57.968Z,5.07
2023-05-12T22:01:24.679Z,4.30
2023-05-12T22:03:51.430Z,7.20
2023-05-12T22:06:17.950Z,4.13
2023-05-12T22:08:44.512Z,4.68
2023-05-12T22:11:11.178Z,5.47
2023-05-12T22:13:37.935Z,4.70
2023-05-12T22:16:04.821Z,5.15
2023-05-12T22:18:31.677Z,4.78
2023-05-12T22:20:58.141Z,4.97
2023-05-12T22:23:24.637Z,5.25
2023-05-12T22:25:51.192Z,4.13
2023-05-12T22:28:18.026Z,3.92
2023-05-12T22:30:44.476Z,6.47
2023-05-12T22:33:11.101Z,3.90
2023-05-12T22:35:37.495Z,6.40
2023-05-12T22:38:04.023Z,4.63
2023-05-12T22:40:30.699Z,4.13
2023-05-12T22:42:57.170Z,4.68
2023-05-12T22:45:23.583Z,5.82
2023-05-12T22:47:50.010Z,5.15
2023-05-12T22:50:16.664Z,6.82
2023-05-12T22:52:43.304Z,4.20
2023-05-12T22:55:10.280Z,4.03
2023-05-12T22:57:38.529Z,5.65
2023-05-12T23:00:06.076Z,5.10
2023-05-12T23:02:32.636Z,4.15
2023-05-12T23:04:59.169Z,5.68
2023-05-12T23:07:25.732Z,4.53
2023-05-12T23:09:52.160Z,6.00
2023-05-12T23:12:18.617Z,3.92
2023-05-12T23:14:45.019Z,3.60
2023-05-12T23:17:11.449Z,3.30
2023-05-12T23:19:37.999Z,2.50
2023-05-12T23:22:04.521Z,4.35
2023-05-12T23:24:31.148Z,4.63
2023-05-12T23:26:57.657Z,3.78
2023-05-12T23:29:24.105Z,5.20
2023-05-12T23:31:50.557Z,4.07
2023-05-12T23:34:17.024Z,3.88
2023-05-12T23:36:43.429Z,3.90
2023-05-12T23:39:09.827Z,4.13
2023-05-12T23:41:36.528Z,3.35
2023-05-12T23:44:03.307Z,3.25
2023-05-12T23:46:29.714Z,4.38
2023-05-12T23:48:56.522Z,4.32
2023-05-12T23:51:23.761Z,5.75
2023-05-12T23:53:50.331Z,4.60
2023-05-12T23:56:16.754Z,4.43
2023-05-12T23:58:43.188Z,3.90
